Main page
METAR-TAF:

METAR-TAF

Airports :

Oberpfaffenhofen, Germany

latitude: 48-05N, longitude: 011-17E, elevation: 600 m

Current weather observation

The report was made 45 minutes ago, at 08:20 UTC
Wind 6 kt from the Southwest
Temperature 21°C
Humidity 64%
Pressure 1015 hPa
Visibility 10 km or more
no clouds below 1500 m and no cumulonimbus

METAR: EDMO 210820Z 23006KT CAVOK 21/14 Q1015

Time: 11:05 (09:05 UTC)

Forecast

The report was made 1 hour and 5 minutes ago, at 08:00 UTC
Forecast valid from 21 at 09 UTC to 21 at 18 UTC
Wind 8 kt from the Southwest
Visibility 10 km or more
no clouds below 1500 m and no cumulonimbus
Becoming
from 21 at 15 UTC to 21 at 17 UTC
Wind 15 kt from the West with gusts up to 25 kt
Temporary
from 21 at 17 UTC to 21 at 18 UTC
Scattered clouds at a height of 4000 ft, Towering cumulus.
rain showers

TAF: EDMO 210800Z 2109/2118 22008KT CAVOK BECMG 2115/2117 27015G25KT TEMPO 2117/2118 SHRA SCT040TCU

Weather observations and forecasts of more than 4000 airports (METAR and TAF reports).

The available stations are represented by yellow and red dots on the map.

Hover mouse over dot to see the name of the station.

Then click to see weather observations and forecasts.

To change the map : click on the green buttons with a black cross to zoom in, on the green button with a dash to zoom out, or on the green arrows for adjacent maps.


METAR-TAF: